Terminal Aerodrome Forecast
Issued by NWS Sioux Falls, SD

Home | Current Version | Previous Version | Text Only | Print | Product List | Glossary Off
Versions: 1 2 3 4 5 6 7 8 9 10 11 12 13 14 15 16

000
FTUS43 KFSD 031723
TAFFSD
TAF
KFSD 031723Z 0318/0418 34023G34KT 4SM BLSN BKN030
     FM032200 32018G26KT P6SM SCT020 BKN150
     FM040100 31009KT P6SM SCT040 SCT200=

USA.gov is the U.S. government's official web portal to all federal, state and local government web resources and services.